Time;durP1;ratioP1;P1;durP2;ratioP2;P2;SDS_P1;SDS_P2;PMS_P1;PMS_P2;Temp;Humidity;BMP_temperature;BMP_pressure;BME280_temperature;BME280_humidity;BME280_pressure;Samples;Min_cycle;Max_cycle;Signal;HPM_P1;HPM_P2
2022/07/05 00:00:41;;;;;;;4.93;1.48;;;;;;;;;;5005700;28;20040;-59
2022/07/05 00:03:07;;;;;;;3.13;1.50;;;12.90;99.90;;;;;;5012066;28;20532;-59
2022/07/05 00:05:32;;;;;;;4.60;1.95;;;13.20;99.90;;;;;;4993583;28;20122;-60
2022/07/05 00:07:58;;;;;;;5.15;1.52;;;12.80;99.90;;;;;;4992111;28;20034;-59
2022/07/05 00:10:23;;;;;;;3.78;1.58;;;13.00;99.90;;;;;;5007329;28;20038;-59
2022/07/05 00:12:49;;;;;;;4.80;1.58;;;12.80;99.90;;;;;;5020244;28;20082;-59
2022/07/05 00:15:15;;;;;;;1.98;1.33;;;;;;;;;;4994071;28;20038;-60
2022/07/05 00:17:40;;;;;;;2.55;1.85;;;12.90;99.90;;;;;;4993595;28;20121;-60
2022/07/05 00:20:07;;;;;;;4.15;1.95;;;12.90;99.90;;;;;;5014086;28;20025;-60
2022/07/05 00:22:32;;;;;;;4.72;2.33;;;12.90;99.90;;;;;;5000974;28;20040;-60
2022/07/05 00:24:58;;;;;;;3.47;1.38;;;12.80;99.90;;;;;;5011841;28;20501;-59
2022/07/05 00:27:24;;;;;;;2.00;1.17;;;12.70;99.90;;;;;;5017032;28;20034;-60
2022/07/05 00:29:50;;;;;;;3.65;1.40;;;;;;;;;;5008393;28;20404;-59
2022/07/05 00:32:16;;;;;;;2.05;1.60;;;;;;;;;;4999120;28;20042;-59
2022/07/05 00:34:42;;;;;;;3.70;1.40;;;;;;;;;;4993034;28;20049;-59
2022/07/05 00:37:07;;;;;;;2.03;1.48;;;12.60;99.90;;;;;;4993048;28;20077;-59
2022/07/05 00:39:33;;;;;;;1.45;1.00;;;12.60;99.90;;;;;;5008205;28;20554;-59
2022/07/05 00:42:00;;;;;;;2.22;1.25;;;;;;;;;;4994678;28;20041;-60
2022/07/05 00:44:32;;;;;;;1.95;1.20;;;12.30;99.90;;;;;;4993278;28;20050;-59
2022/07/05 00:46:58;;;;;;;2.15;1.10;;;12.30;99.90;;;;;;5003180;28;20141;-60
2022/07/05 00:49:24;;;;;;;1.60;1.15;;;11.90;99.90;;;;;;4991917;28;20528;-61
2022/07/05 00:51:49;;;;;;;3.53;1.27;;;12.20;99.90;;;;;;4993023;28;20110;-59
2022/07/05 00:54:15;;;;;;;3.40;1.13;;;12.10;99.90;;;;;;4992007;28;20400;-60
2022/07/05 00:56:41;;;;;;;2.15;1.10;;;12.20;99.90;;;;;;4992951;28;20043;-59
2022/07/05 00:59:06;;;;;;;4.38;1.23;;;12.20;99.90;;;;;;5020652;28;20588;-60
2022/07/05 01:01:32;;;;;;;2.53;1.23;;;12.30;99.90;;;;;;4993218;28;20038;-60
2022/07/05 01:03:58;;;;;;;3.10;1.60;;;12.30;99.90;;;;;;4991552;28;20034;-60
2022/07/05 01:06:23;;;;;;;5.05;1.35;;;12.00;99.90;;;;;;4992745;28;20077;-60
2022/07/05 01:08:50;;;;;;;1.92;0.90;;;12.10;99.90;;;;;;4994663;28;20043;-60
2022/07/05 01:11:16;;;;;;;2.97;1.30;;;12.00;99.90;;;;;;5003633;28;20118;-60
2022/07/05 01:13:42;;;;;;;2.22;1.50;;;11.80;99.90;;;;;;4991476;28;20125;-60
2022/07/05 01:16:08;;;;;;;3.40;1.98;;;11.90;99.90;;;;;;5030491;28;20045;-60
2022/07/05 01:18:34;;;;;;;2.35;2.05;;;12.00;99.90;;;;;;5009249;28;20089;-60
2022/07/05 01:21:00;;;;;;;2.08;1.73;;;12.00;99.90;;;;;;4991271;28;20133;-60
2022/07/05 01:23:31;;;;;;;2.67;1.52;;;11.90;99.90;;;;;;4993273;28;20093;-60
2022/07/05 01:25:59;;;;;;;2.22;1.50;;;12.00;99.90;;;;;;4997629;28;20547;-60
2022/07/05 01:28:25;;;;;;;2.10;1.48;;;11.80;99.90;;;;;;5013630;28;20042;-60
2022/07/05 01:30:51;;;;;;;1.88;1.35;;;11.80;99.90;;;;;;4992709;28;20042;-60
2022/07/05 01:33:16;;;;;;;1.77;1.63;;;12.00;99.90;;;;;;4993138;28;20042;-60
2022/07/05 01:35:42;;;;;;;3.60;1.83;;;11.80;99.90;;;;;;4992983;28;20106;-60
2022/07/05 01:38:13;;;;;;;3.88;1.70;;;11.90;99.90;;;;;;4997646;28;20069;-60
2022/07/05 01:40:39;;;;;;;2.30;1.50;;;11.60;99.90;;;;;;5023506;28;20038;-60
2022/07/05 01:43:05;;;;;;;3.78;1.65;;;11.70;99.90;;;;;;5008782;28;20130;-60
2022/07/05 01:45:41;;;;;;;2.20;1.55;;;;;;;;;;5013610;28;20045;-60
2022/07/05 01:48:09;;;;;;;2.50;1.95;;;11.70;99.90;;;;;;5028813;28;20065;-60
2022/07/05 01:50:48;;;;;;;1.77;1.65;;;11.80;99.90;;;;;;5025268;28;20042;-61
2022/07/05 01:53:19;;;;;;;2.28;1.65;;;11.80;99.90;;;;;;4996264;28;20852;-60
2022/07/05 01:55:45;;;;;;;1.85;1.23;;;11.70;99.90;;;;;;4996339;28;20045;-60
2022/07/05 01:58:11;;;;;;;1.35;1.25;;;11.70;99.90;;;;;;5018405;28;20045;-60
2022/07/05 02:00:48;;;;;;;3.50;2.10;;;11.70;99.90;;;;;;4999263;28;20061;-60
2022/07/05 02:03:14;;;;;;;3.78;1.67;;;11.60;99.90;;;;;;5018643;28;20368;-60
2022/07/05 02:05:41;;;;;;;2.83;1.20;;;11.70;99.90;;;;;;5035326;28;20403;-60
2022/07/05 02:08:08;;;;;;;1.92;1.25;;;11.50;99.90;;;;;;5035490;28;20041;-60
2022/07/05 02:10:35;;;;;;;2.92;1.20;;;11.60;99.90;;;;;;5002824;28;20050;-60
2022/07/05 02:13:01;;;;;;;3.65;1.15;;;11.70;99.90;;;;;;4995879;28;20042;-59
2022/07/05 02:15:29;;;;;;;2.13;1.40;;;11.60;99.90;;;;;;5007461;28;20049;-59
2022/07/05 02:17:54;;;;;;;2.28;1.48;;;11.60;99.90;;;;;;5013172;28;20042;-60
2022/07/05 02:20:20;;;;;;;1.67;1.48;;;11.50;99.90;;;;;;5009382;28;20049;-60
2022/07/05 02:22:46;;;;;;;2.83;1.20;;;11.40;99.90;;;;;;4998902;28;20042;-59
2022/07/05 02:25:11;;;;;;;2.85;1.67;;;11.30;99.90;;;;;;5023564;28;20037;-59
2022/07/05 02:27:37;;;;;;;4.15;1.70;;;11.30;99.90;;;;;;5007357;28;20126;-59
2022/07/05 02:30:03;;;;;;;2.00;1.58;;;11.30;99.90;;;;;;5018867;28;20049;-61
2022/07/05 02:32:31;;;;;;;2.42;1.55;;;11.20;99.90;;;;;;5007291;28;20049;-59
2022/07/05 02:34:57;;;;;;;2.38;1.23;;;11.10;99.90;;;;;;5023401;28;20038;-59
2022/07/05 02:37:22;;;;;;;2.22;1.25;;;11.20;99.90;;;;;;4995661;28;20069;-59
2022/07/05 02:39:48;;;;;;;2.45;1.50;;;;;;;;;;5002012;28;20103;-60
2022/07/05 02:42:14;;;;;;;4.63;2.13;;;11.00;99.90;;;;;;5014673;28;20054;-59
2022/07/05 02:44:39;;;;;;;2.28;1.65;;;11.00;99.90;;;;;;4995305;28;20042;-60
2022/07/05 02:47:05;;;;;;;2.22;1.92;;;11.20;99.90;;;;;;5002502;28;20042;-59
2022/07/05 02:49:30;;;;;;;2.63;2.00;;;11.20;99.90;;;;;;5007517;28;20046;-59
2022/07/05 02:51:56;;;;;;;2.25;1.92;;;11.10;99.90;;;;;;4996083;28;20118;-60
2022/07/05 02:54:22;;;;;;;2.42;1.60;;;11.30;99.90;;;;;;4995389;28;20046;-61
2022/07/05 02:56:47;;;;;;;4.47;1.77;;;11.10;99.90;;;;;;5007863;28;20081;-61
2022/07/05 02:59:13;;;;;;;2.78;2.17;;;;;;;;;;4993833;28;20042;-60
2022/07/05 03:01:39;;;;;;;3.53;2.00;;;11.10;99.90;;;;;;5021107;28;20041;-60
2022/07/05 03:04:06;;;;;;;3.70;1.85;;;11.10;99.90;;;;;;4993946;28;20049;-59
2022/07/05 03:06:31;;;;;;;2.25;1.77;;;11.00;99.90;;;;;;5007912;28;20049;-60
2022/07/05 03:08:57;;;;;;;2.58;2.38;;;11.10;99.90;;;;;;5013413;28;20037;-60
2022/07/05 03:11:23;;;;;;;2.72;2.50;;;10.90;99.90;;;;;;5003762;28;20092;-61
2022/07/05 03:13:48;;;;;;;4.07;3.10;;;11.10;99.90;;;;;;4994910;28;20046;-60
2022/07/05 03:16:14;;;;;;;4.65;3.55;;;11.00;99.90;;;;;;4994258;28;20101;-60
2022/07/05 03:18:39;;;;;;;3.88;3.30;;;11.00;99.90;;;;;;5024669;28;20507;-60
2022/07/05 03:21:05;;;;;;;4.30;3.65;;;10.90;99.90;;;;;;5032845;28;20073;-59
2022/07/05 03:23:31;;;;;;;3.85;2.92;;;11.00;99.90;;;;;;5020383;28;20042;-60
2022/07/05 03:25:56;;;;;;;4.40;2.88;;;;;;;;;;5004156;28;20038;-60
2022/07/05 03:28:22;;;;;;;4.00;2.30;;;11.00;99.90;;;;;;5032447;28;20111;-61
2022/07/05 03:30:48;;;;;;;2.05;1.85;;;10.90;99.90;;;;;;5029746;28;20408;-60
2022/07/05 03:33:13;;;;;;;2.95;1.85;;;11.00;99.90;;;;;;4994198;28;20053;-60
2022/07/05 03:35:39;;;;;;;2.15;1.95;;;10.90;99.90;;;;;;4994477;28;20043;-60
2022/07/05 03:38:04;;;;;;;2.53;2.00;;;11.00;99.90;;;;;;5021542;28;20076;-60
2022/07/05 03:40:30;;;;;;;3.70;2.35;;;11.10;99.90;;;;;;4994489;28;20039;-60
2022/07/05 03:42:55;;;;;;;2.85;2.58;;;10.90;99.90;;;;;;4994240;28;20034;-60
2022/07/05 03:45:21;;;;;;;2.90;2.60;;;;;;;;;;5010542;28;20045;-61
2022/07/05 03:47:47;;;;;;;4.93;4.38;;;11.10;99.90;;;;;;5027313;28;20049;-60
2022/07/05 03:50:13;;;;;;;4.55;3.35;;;11.00;99.90;;;;;;5006152;28;20038;-60
2022/07/05 03:52:38;;;;;;;4.20;3.78;;;11.10;99.90;;;;;;4993846;28;20096;-60
2022/07/05 03:55:04;;;;;;;2.83;2.55;;;11.10;99.90;;;;;;4999869;28;20045;-60
2022/07/05 03:57:30;;;;;;;2.58;2.38;;;11.10;99.90;;;;;;5001918;28;20526;-60
2022/07/05 03:59:56;;;;;;;2.83;2.20;;;11.00;99.90;;;;;;5005877;28;20038;-60
2022/07/05 04:02:21;;;;;;;3.10;2.65;;;10.90;99.90;;;;;;5013259;28;20044;-60
2022/07/05 04:04:47;;;;;;;3.00;2.63;;;10.90;99.90;;;;;;5016290;28;20046;-60
2022/07/05 04:07:13;;;;;;;2.40;2.20;;;11.00;99.90;;;;;;4994238;28;20054;-60
2022/07/05 04:09:38;;;;;;;2.90;2.38;;;10.90;99.90;;;;;;4994123;28;20041;-60
2022/07/05 04:12:04;;;;;;;3.08;2.70;;;11.10;99.90;;;;;;5009642;28;20447;-60
2022/07/05 04:14:30;;;;;;;2.92;2.15;;;10.90;99.90;;;;;;5013437;28;20045;-62
2022/07/05 04:16:56;;;;;;;2.83;2.20;;;;;;;;;;5007876;28;20442;-62
2022/07/05 04:19:22;;;;;;;3.47;2.50;;;;;;;;;;5013144;28;20033;-62
2022/07/05 04:21:48;;;;;;;3.10;2.40;;;11.20;99.90;;;;;;5013499;28;20049;-62
2022/07/05 04:24:13;;;;;;;3.47;2.60;;;11.30;99.90;;;;;;5008995;28;20034;-63
2022/07/05 04:26:39;;;;;;;2.45;2.25;;;11.30;99.90;;;;;;4993345;28;20098;-62
2022/07/05 04:29:05;;;;;;;2.55;2.35;;;;;;;;;;5020414;28;20077;-62
2022/07/05 04:31:31;;;;;;;3.17;2.88;;;;;;;;;;4994136;28;20096;-62
2022/07/05 04:33:57;;;;;;;3.63;3.33;;;11.50;99.90;;;;;;5020797;28;20041;-66
2022/07/05 04:36:22;;;;;;;4.20;3.80;;;11.60;99.90;;;;;;4997701;28;20042;-63
2022/07/05 04:38:48;;;;;;;3.55;3.13;;;;;;;;;;5006785;28;20050;-62
2022/07/05 04:41:14;;;;;;;3.22;2.80;;;;;;;;;;5008128;28;20046;-63
2022/07/05 04:43:40;;;;;;;3.40;2.97;;;12.00;99.90;;;;;;5004912;28;20050;-63
2022/07/05 04:46:05;;;;;;;3.75;3.42;;;12.00;99.90;;;;;;5008114;28;20041;-63
2022/07/05 04:48:31;;;;;;;4.82;4.03;;;11.90;99.90;;;;;;5022503;28;20081;-63
2022/07/05 04:50:56;;;;;;;4.38;3.65;;;12.30;99.90;;;;;;5011290;28;20128;-63
2022/07/05 04:53:22;;;;;;;2.92;2.05;;;12.30;99.90;;;;;;5012969;28;20439;-63
2022/07/05 04:55:48;;;;;;;4.07;2.35;;;;;;;;;;5010947;28;20050;-62
2022/07/05 04:58:14;;;;;;;2.35;2.15;;;;;;;;;;5008028;28;20077;-62
2022/07/05 05:00:39;;;;;;;4.18;2.38;;;12.50;99.90;;;;;;5009507;28;20048;-62
2022/07/05 05:03:05;;;;;;;3.65;2.90;;;;;;;;;;5008893;28;20780;-62
2022/07/05 05:05:31;;;;;;;4.03;2.67;;;13.40;99.90;;;;;;5008504;28;20050;-60
2022/07/05 05:07:57;;;;;;;4.40;2.80;;;;;;;;;;5008161;28;20053;-62
2022/07/05 05:10:24;;;;;;;4.30;2.70;;;14.50;99.90;;;;;;5007007;28;20046;-62
2022/07/05 05:12:49;;;;;;;5.68;2.83;;;15.10;99.90;;;;;;5011330;28;20045;-62
2022/07/05 05:15:15;;;;;;;6.00;2.60;;;;;;;;;;5012181;28;20056;-62
2022/07/05 05:17:43;;;;;;;4.93;2.85;;;16.10;99.90;;;;;;5010599;28;20128;-62
2022/07/05 05:20:17;;;;;;;5.97;2.72;;;16.20;99.90;;;;;;5010765;28;20078;-61
2022/07/05 05:22:43;;;;;;;5.72;3.10;;;16.20;99.90;;;;;;5012187;28;20151;-62
2022/07/05 05:25:10;;;;;;;5.00;2.80;;;16.50;99.90;;;;;;4999455;28;20103;-60
2022/07/05 05:27:47;;;;;;;3.97;2.58;;;16.50;99.90;;;;;;5007076;28;20042;-61
2022/07/05 05:30:14;;;;;;;3.25;2.40;;;16.30;99.90;;;;;;4993497;28;20042;-62
2022/07/05 05:32:40;;;;;;;5.18;3.20;;;16.10;99.90;;;;;;5010856;28;20042;-62
2022/07/05 05:35:07;;;;;;;3.72;2.92;;;16.20;99.90;;;;;;5011478;28;20068;-61
2022/07/05 05:37:49;;;;;;;4.35;3.00;;;15.90;99.90;;;;;;5011916;28;20065;-62
2022/07/05 05:40:16;;;;;;;4.85;3.00;;;16.10;99.90;;;;;;5001252;28;20408;-62
2022/07/05 05:42:42;;;;;;;3.97;2.63;;;15.90;99.90;;;;;;5009766;28;20046;-63
2022/07/05 05:45:08;;;;;;;3.95;2.60;;;16.20;99.90;;;;;;5011461;28;20419;-62
2022/07/05 05:47:33;;;;;;;3.47;2.78;;;16.00;99.90;;;;;;5009092;28;20444;-63
2022/07/05 05:49:59;;;;;;;4.57;2.85;;;16.20;99.90;;;;;;5011735;28;20121;-64
2022/07/05 05:52:24;;;;;;;6.93;3.03;;;16.30;99.90;;;;;;5011715;28;20074;-63
2022/07/05 05:54:50;;;;;;;5.05;2.42;;;16.60;99.90;;;;;;5008871;28;20076;-63
2022/07/05 05:57:15;;;;;;;3.85;2.00;;;17.00;99.90;;;;;;5013478;28;20165;-63
2022/07/05 05:59:41;;;;;;;5.80;2.15;;;16.90;99.90;;;;;;5015654;28;20037;-63
2022/07/05 06:02:06;;;;;;;2.97;1.98;;;17.30;99.90;;;;;;5015876;28;20121;-63
2022/07/05 06:04:32;;;;;;;4.18;1.65;;;17.30;99.90;;;;;;5015592;28;20403;-62
2022/07/05 06:06:57;;;;;;;6.38;1.83;;;17.70;99.90;;;;;;5015460;28;20045;-63
2022/07/05 06:09:23;;;;;;;3.70;1.77;;;18.10;99.90;;;;;;5014270;28;20093;-63
2022/07/05 06:11:48;;;;;;;2.60;1.17;;;18.40;99.90;;;;;;5013905;28;20088;-62
2022/07/05 06:14:14;;;;;;;3.58;0.95;;;18.60;99.90;;;;;;5014295;28;20046;-63
2022/07/05 06:16:39;;;;;;;3.45;1.90;;;18.50;99.90;;;;;;5014140;28;20060;-63
2022/07/05 06:19:05;;;;;;;4.93;1.73;;;18.80;99.90;;;;;;5012961;28;20041;-63
2022/07/05 06:21:30;;;;;;;4.28;1.52;;;18.60;99.90;;;;;;5013852;28;20042;-63
2022/07/05 06:23:56;;;;;;;6.75;1.40;;;18.90;99.90;;;;;;5012841;28;20046;-61
2022/07/05 06:26:21;;;;;;;4.53;0.90;;;19.10;99.90;;;;;;5013181;28;20053;-61
2022/07/05 06:28:49;;;;;;;3.00;1.48;;;19.10;99.90;;;;;;5013367;28;20041;-60
2022/07/05 06:31:15;;;;;;;2.42;1.10;;;18.90;99.90;;;;;;5028239;28;20041;-61
2022/07/05 06:33:40;;;;;;;4.78;1.20;;;19.00;99.90;;;;;;5011654;28;20041;-60
2022/07/05 06:36:06;;;;;;;5.60;1.00;;;19.20;99.90;;;;;;5012467;28;20089;-61
2022/07/05 06:38:31;;;;;;;1.90;0.80;;;19.10;99.90;;;;;;5013177;28;20037;-61
2022/07/05 06:40:57;;;;;;;3.53;1.00;;;20.60;99.90;;;;;;5012625;28;20046;-60
2022/07/05 06:43:23;;;;;;;2.03;0.80;;;19.20;99.90;;;;;;5011238;28;20053;-60
2022/07/05 06:45:48;;;;;;;3.33;0.90;;;18.80;99.90;;;;;;5008346;28;20038;-60
2022/07/05 06:48:14;;;;;;;1.90;0.63;;;18.60;99.90;;;;;;5014084;28;20052;-60
2022/07/05 06:50:41;;;;;;;3.65;0.60;;;18.90;99.90;;;;;;5013414;28;20046;-60
2022/07/05 06:53:07;;;;;;;2.38;0.60;;;18.60;99.90;;;;;;5014024;28;20052;-61
2022/07/05 06:55:33;;;;;;;4.90;1.33;;;18.90;99.90;;;;;;5013945;28;20042;-61
2022/07/05 06:58:00;;;;;;;1.73;0.75;;;18.70;99.90;;;;;;5012372;28;20121;-60
2022/07/05 07:00:27;;;;;;;1.33;0.45;;;18.50;99.90;;;;;;5012791;28;20518;-60
2022/07/05 07:02:53;;;;;;;1.23;0.55;;;18.70;99.90;;;;;;5013805;28;20468;-62
2022/07/05 07:05:18;;;;;;;4.82;0.70;;;18.60;99.90;;;;;;4995154;28;20044;-62
2022/07/05 07:10:28;;;;;;;3.15;0.45;;;18.80;99.90;;;;;;5000223;28;20053;-62
2022/07/05 07:12:53;;;;;;;8.23;1.00;;;18.40;99.90;;;;;;5011793;28;20377;-61
2022/07/05 07:15:19;;;;;;;3.63;0.50;;;18.60;99.90;;;;;;5012555;28;20041;-61
2022/07/05 07:17:45;;;;;;;4.20;0.77;;;18.50;99.90;;;;;;5011998;28;20045;-61
2022/07/05 07:20:10;;;;;;;3.20;0.50;;;18.60;99.90;;;;;;5000195;28;20497;-62
2022/07/05 07:22:36;;;;;;;2.10;0.57;;;18.40;99.90;;;;;;5012584;28;20503;-61
2022/07/05 07:25:04;;;;;;;2.95;0.80;;;18.70;99.90;;;;;;5012429;28;20044;-61
2022/07/05 07:27:30;;;;;;;4.05;0.90;;;18.90;99.90;;;;;;5012731;28;20042;-61
2022/07/05 07:29:56;;;;;;;3.85;0.60;;;18.90;99.90;;;;;;5011522;28;20168;-61
2022/07/05 07:32:21;;;;;;;4.72;0.80;;;18.50;99.90;;;;;;4997911;28;20114;-62
2022/07/05 07:34:47;;;;;;;8.23;0.68;;;19.00;99.90;;;;;;5007535;28;20077;-61
2022/07/05 07:37:13;;;;;;;5.20;0.60;;;18.90;99.90;;;;;;4995263;28;20043;-61
2022/07/05 07:39:39;;;;;;;1.92;0.70;;;18.80;99.90;;;;;;4999490;28;20065;-62
2022/07/05 07:42:07;;;;;;;1.23;0.40;;;18.70;99.90;;;;;;5012929;28;20377;-61
2022/07/05 07:44:32;;;;;;;1.88;0.55;;;18.70;99.90;;;;;;5012569;28;20484;-62
2022/07/05 07:46:58;;;;;;;12.60;1.05;;;18.70;99.90;;;;;;5006207;28;20044;-62
2022/07/05 07:49:23;;;;;;;3.05;0.52;;;18.80;99.90;;;;;;5012279;28;20034;-62
2022/07/05 07:51:51;;;;;;;10.18;1.10;;;18.60;99.90;;;;;;5012544;28;20038;-62
2022/07/05 07:54:16;;;;;;;2.58;0.45;;;18.80;99.90;;;;;;5011060;28;20038;-61
2022/07/05 07:56:42;;;;;;;3.70;0.68;;;18.80;99.90;;;;;;5010858;28;20064;-61
2022/07/05 07:59:08;;;;;;;5.28;0.60;;;18.60;99.90;;;;;;5012661;28;20076;-61
2022/07/05 08:01:34;;;;;;;2.42;0.55;;;18.60;99.90;;;;;;5012294;28;20049;-61
2022/07/05 08:03:59;;;;;;;3.63;0.70;;;18.50;99.90;;;;;;5008056;28;20069;-61
2022/07/05 08:06:25;;;;;;;4.75;1.08;;;18.30;99.90;;;;;;5010530;28;20092;-61
2022/07/05 08:08:51;;;;;;;6.95;0.68;;;18.60;99.90;;;;;;5007818;28;20056;-61
2022/07/05 08:11:16;;;;;;;2.55;0.40;;;18.70;99.90;;;;;;5001709;28;20038;-61
2022/07/05 08:13:42;;;;;;;3.63;0.60;;;18.70;99.90;;;;;;5011156;28;20041;-61
2022/07/05 08:16:09;;;;;;;2.65;0.52;;;19.10;99.90;;;;;;5011784;28;20076;-62
2022/07/05 08:21:31;;;;;;;1.57;0.50;;;18.90;99.90;;;;;;5011381;28;20050;-61
2022/07/05 08:24:02;;;;;;;5.97;0.73;;;19.10;99.90;;;;;;5005282;28;20502;-61
2022/07/05 08:26:30;;;;;;;3.15;0.77;;;19.00;99.90;;;;;;5007089;28;20056;-61
2022/07/05 08:28:58;;;;;;;2.83;0.60;;;19.30;99.90;;;;;;5010750;28;20041;-61
2022/07/05 08:31:24;;;;;;;2.40;0.55;;;19.20;99.90;;;;;;5008724;28;20399;-61
2022/07/05 08:33:50;;;;;;;4.28;0.50;;;19.30;99.90;;;;;;5009124;28;20045;-61
2022/07/05 08:36:16;;;;;;;2.08;0.50;;;19.20;99.90;;;;;;5008810;28;20056;-61
2022/07/05 08:38:42;;;;;;;2.45;0.50;;;19.50;99.90;;;;;;5011296;28;20053;-61
2022/07/05 08:41:09;;;;;;;7.70;0.90;;;19.20;99.90;;;;;;5016178;28;20050;-62
2022/07/05 08:43:39;;;;;;;7.50;0.98;;;19.30;99.90;;;;;;5012551;28;20045;-61
2022/07/05 08:46:08;;;;;;;4.93;0.75;;;19.10;99.90;;;;;;5007767;28;20042;-61
2022/07/05 08:48:44;;;;;;;4.75;0.70;;;20.40;99.90;;;;;;4993012;28;20052;-61
2022/07/05 08:51:16;;;;;;;3.25;0.80;;;19.00;99.90;;;;;;5009822;28;20060;-61
2022/07/05 08:53:43;;;;;;;4.47;1.00;;;19.20;99.90;;;;;;5010071;28;20099;-61
2022/07/05 08:56:11;;;;;;;3.95;0.63;;;18.90;99.90;;;;;;5004340;28;20396;-61
2022/07/05 08:58:37;;;;;;;5.78;0.80;;;19.10;99.90;;;;;;5009902;28;20515;-61
2022/07/05 09:01:04;;;;;;;3.58;0.68;;;18.90;99.90;;;;;;5010231;28;20036;-61
2022/07/05 09:03:37;;;;;;;3.50;0.60;;;19.30;99.90;;;;;;5010340;28;20096;-61
2022/07/05 09:06:07;;;;;;;3.70;0.70;;;19.20;99.90;;;;;;5008824;28;20081;-61
2022/07/05 09:08:38;;;;;;;3.08;0.60;;;19.30;99.90;;;;;;5009917;28;20080;-61
2022/07/05 09:11:06;;;;;;;2.13;0.50;;;19.30;99.90;;;;;;5010328;28;20396;-61
2022/07/05 09:13:37;;;;;;;3.35;0.80;;;19.40;99.90;;;;;;5009982;28;20133;-61
2022/07/05 09:16:03;;;;;;;2.30;0.50;;;19.40;99.90;;;;;;5008825;28;20523;-62
2022/07/05 09:18:49;;;;;;;2.78;0.50;;;19.30;99.90;;;;;;5009145;28;20049;-61
2022/07/05 09:21:23;;;;;;;4.03;0.50;;;19.20;99.90;;;;;;5024833;28;20129;-61
2022/07/05 09:24:03;;;;;;;2.45;0.75;;;19.30;99.90;;;;;;4996531;28;20118;-61
2022/07/05 09:26:38;;;;;;;5.95;1.25;;;16.80;99.90;;;;;;5007230;28;20128;-61
2022/07/05 09:29:06;;;;;;;7.03;0.93;;;19.10;99.90;;;;;;5008733;28;20108;-62
2022/07/05 09:31:40;;;;;;;2.78;0.55;;;19.00;99.90;;;;;;5002193;28;20038;-62
2022/07/05 09:34:14;;;;;;;4.68;0.80;;;18.80;99.90;;;;;;5008088;28;20395;-61
2022/07/05 09:37:01;;;;;;;2.55;0.60;;;18.90;99.90;;;;;;5009431;28;20388;-61
2022/07/05 09:39:30;;;;;;;4.05;0.85;;;18.80;99.90;;;;;;5008361;28;20458;-61
2022/07/05 09:42:11;;;;;;;5.20;0.50;;;19.00;99.90;;;;;;5008397;28;20057;-61
2022/07/05 09:44:50;;;;;;;4.13;0.57;;;18.70;99.90;;;;;;5007251;28;20038;-61
2022/07/05 09:47:18;;;;;;;3.50;0.60;;;18.90;99.90;;;;;;5004772;28;20104;-61
2022/07/05 09:49:45;;;;;;;4.50;0.75;;;18.60;99.90;;;;;;5007089;28;20042;-61
2022/07/05 09:52:26;;;;;;;4.45;0.57;;;19.00;99.90;;;;;;4999947;28;20034;-61
2022/07/05 09:55:01;;;;;;;3.50;0.82;;;18.80;99.90;;;;;;5009724;28;20098;-61
2022/07/05 09:57:27;;;;;;;5.68;0.73;;;18.70;99.90;;;;;;5006513;28;20045;-61
2022/07/05 10:00:01;;;;;;;5.85;0.90;;;18.70;99.90;;;;;;4998839;28;20034;-61
2022/07/05 10:02:36;;;;;;;4.07;0.60;;;18.90;99.90;;;;;;5013301;28;20038;-61
2022/07/05 10:05:14;;;;;;;3.35;0.60;;;18.60;99.90;;;;;;5012003;28;20077;-61
2022/07/05 10:07:41;;;;;;;4.97;0.77;;;18.70;99.90;;;;;;5011689;28;20111;-61
2022/07/05 10:10:08;;;;;;;3.80;0.60;;;18.90;99.90;;;;;;5001215;28;20060;-61
2022/07/05 10:12:36;;;;;;;5.68;0.95;;;19.10;99.90;;;;;;5012007;28;20396;-61
2022/07/05 10:15:02;;;;;;;4.50;0.65;;;19.50;99.90;;;;;;5012874;28;20038;-61
2022/07/05 10:17:32;;;;;;;3.22;0.70;;;19.70;99.90;;;;;;5013557;28;20506;-61
2022/07/05 10:19:59;;;;;;;4.45;0.82;;;19.70;99.90;;;;;;5011455;28;20037;-61
2022/07/05 10:22:27;;;;;;;4.40;0.98;;;19.60;99.90;;;;;;5011371;28;20073;-62
2022/07/05 10:24:54;;;;;;;5.68;0.52;;;19.80;99.90;;;;;;5022566;28;20048;-61
2022/07/05 10:27:21;;;;;;;2.28;0.52;;;19.60;99.90;;;;;;5012437;28;20081;-61
2022/07/05 10:29:49;;;;;;;5.55;0.60;;;19.60;99.90;;;;;;5013434;28;20100;-61
2022/07/05 10:32:16;;;;;;;2.88;0.88;;;19.50;99.90;;;;;;5013566;28;20081;-61
2022/07/05 10:34:46;;;;;;;3.50;0.65;;;19.40;99.90;;;;;;4999990;28;20050;-61
2022/07/05 10:37:12;;;;;;;2.47;0.73;;;19.40;99.90;;;;;;5013417;28;20042;-61
2022/07/05 10:39:37;;;;;;;3.35;0.60;;;19.50;99.90;;;;;;5011807;28;20053;-62
2022/07/05 10:42:06;;;;;;;12.63;0.90;;;19.50;99.90;;;;;;5012747;28;20107;-61
2022/07/05 10:44:34;;;;;;;4.72;0.55;;;19.50;99.90;;;;;;5008958;28;20404;-62
2022/07/05 10:47:13;;;;;;;2.83;0.70;;;19.50;99.90;;;;;;5012209;28;20073;-62
2022/07/05 10:49:40;;;;;;;8.80;0.63;;;19.40;99.90;;;;;;5009308;28;20030;-62
2022/07/05 10:52:23;;;;;;;3.85;1.20;;;19.30;99.90;;;;;;5011872;28;20186;-61
2022/07/05 10:55:16;;;;;;;7.03;0.68;;;19.40;99.90;;;;;;5013030;28;20029;-61
2022/07/05 10:57:42;;;;;;;3.28;0.68;;;19.60;99.90;;;;;;5013340;28;20045;-60
2022/07/05 11:00:10;;;;;;;12.32;1.13;;;19.50;99.90;;;;;;5011784;28;20053;-61
2022/07/05 11:02:36;;;;;;;2.05;0.50;;;19.60;99.90;;;;;;5013284;28;20239;-61
2022/07/05 11:05:03;;;;;;;3.20;0.50;;;20.00;99.90;;;;;;5013155;28;20079;-61
2022/07/05 11:07:58;;;;;;;3.65;0.70;;;19.90;99.90;;;;;;5011713;28;20122;-61
2022/07/05 11:10:24;;;;;;;;;;;20.10;99.90;;;;;;4982388;28;20046;-61
2022/07/05 11:12:49;;;;;;;2.35;0.90;;;20.40;99.90;;;;;;5011241;28;20298;-61
2022/07/05 11:15:16;;;;;;;2.75;0.65;;;20.60;99.90;;;;;;5011422;28;20052;-61
2022/07/05 11:17:42;;;;;;;3.53;0.60;;;20.50;99.90;;;;;;5026766;28;20048;-62
2022/07/05 11:20:29;;;;;;;4.22;0.70;;;20.30;99.90;;;;;;5011398;28;20037;-61
2022/07/05 11:23:05;;;;;;;3.78;1.20;;;20.30;99.90;;;;;;5019382;28;20045;-61
2022/07/05 11:25:36;;;;;;;3.60;0.98;;;20.50;99.90;;;;;;5010700;28;20053;-62
2022/07/05 11:28:15;;;;;;;3.85;0.47;;;20.30;99.90;;;;;;5010142;28;20042;-62
2022/07/05 11:30:49;;;;;;;6.65;0.47;;;20.50;99.90;;;;;;5010269;28;20123;-61
2022/07/05 11:33:30;;;;;;;3.50;0.40;;;20.20;99.90;;;;;;5010026;28;20049;-61
2022/07/05 11:35:59;;;;;;;2.20;0.40;;;20.30;99.90;;;;;;5025835;28;20053;-61
2022/07/05 11:38:25;;;;;;;5.97;0.90;;;20.50;99.90;;;;;;5011930;28;20084;-61
2022/07/05 11:40:53;;;;;;;1.73;0.45;;;20.60;99.90;;;;;;5009642;28;20090;-61
2022/07/05 11:43:29;;;;;;;3.72;0.30;;;20.60;99.90;;;;;;5012294;28;20049;-61
2022/07/05 11:45:59;;;;;;;2.58;0.50;;;20.70;99.90;;;;;;5010844;28;20487;-61
2022/07/05 11:48:29;;;;;;;3.25;0.45;;;20.70;99.90;;;;;;5012184;28;20053;-62
2022/07/05 11:50:55;;;;;;;2.17;0.22;;;20.80;99.90;;;;;;5010955;28;20109;-61
2022/07/05 11:53:29;;;;;;;3.30;0.45;;;20.70;99.90;;;;;;5010723;28;20088;-61
2022/07/05 11:55:58;;;;;;;2.08;0.65;;;20.80;99.90;;;;;;5012468;28;20034;-61
2022/07/05 11:58:31;;;;;;;1.75;0.30;;;21.20;99.90;;;;;;4994254;28;20041;-61
2022/07/05 12:00:56;;;;;;;1.92;0.40;;;21.20;99.90;;;;;;5011851;28;20420;-61
2022/07/05 12:03:22;;;;;;;1.33;0.50;;;20.90;99.90;;;;;;5010692;28;20050;-61
2022/07/05 12:05:48;;;;;;;2.72;0.60;;;21.10;99.90;;;;;;5011762;28;20048;-62
2022/07/05 12:08:23;;;;;;;3.67;0.52;;;21.40;99.90;;;;;;5010299;28;20042;-61
2022/07/05 12:13:47;;;;;;;;;;;21.10;99.90;;;;;;5010716;28;20042;-61
2022/07/05 12:16:13;;;;;;;2.90;0.70;;;20.90;99.90;;;;;;5010539;28;19921;-61
2022/07/05 12:18:48;;;;;;;4.47;1.05;;;21.00;99.90;;;;;;5016711;28;20037;-61
2022/07/05 12:21:14;;;;;;;4.30;0.50;;;20.80;99.90;;;;;;5009930;28;20038;-61
2022/07/05 12:23:44;;;;;;;3.63;0.50;;;20.70;99.90;;;;;;5010236;28;20037;-61
2022/07/05 12:26:12;;;;;;;6.70;0.57;;;20.60;99.90;;;;;;5003226;28;20514;-61
2022/07/05 12:28:38;;;;;;;5.10;0.77;;;20.50;99.90;;;;;;5006232;28;20061;-61
2022/07/05 12:31:15;;;;;;;3.67;0.55;;;20.30;99.90;;;;;;4995809;28;20045;-61
2022/07/05 12:33:41;;;;;;;3.15;0.45;;;20.10;99.90;;;;;;5000331;28;20046;-61
2022/07/05 12:36:15;;;;;;;1.63;0.40;;;19.80;99.90;;;;;;4999277;28;20064;-61
2022/07/05 12:38:41;;;;;;;6.03;0.67;;;20.00;99.90;;;;;;5009931;28;20058;-61
2022/07/05 12:41:07;;;;;;;3.05;0.57;;;20.30;99.90;;;;;;5008203;28;20115;-61
2022/07/05 12:43:47;;;;;;;6.63;0.63;;;20.40;99.90;;;;;;5001532;28;20053;-61
2022/07/05 12:46:13;;;;;;;2.45;0.50;;;20.40;99.90;;;;;;4996754;28;20050;-61
2022/07/05 12:48:39;;;;;;;0.55;0.20;;;20.50;99.90;;;;;;4991672;28;20050;-60
2022/07/05 12:51:09;;;;;;;2.60;0.40;;;20.50;99.90;;;;;;4992777;28;20488;-61
2022/07/05 12:59:12;;;;;;;2.50;0.98;;;20.70;99.90;;;;;;4997813;28;20488;-62
2022/07/05 13:01:40;;;;;;;1.95;0.50;;;20.80;99.90;;;;;;5004263;28;20058;-61
2022/07/05 13:04:14;;;;;;;2.42;0.47;;;20.90;99.90;;;;;;5004613;28;20091;-60
2022/07/05 13:06:51;;;;;;;3.35;0.70;;;20.90;99.90;;;;;;5019738;28;20488;-62
2022/07/05 13:09:32;;;;;;;1.88;0.40;;;20.70;99.90;;;;;;5007420;28;20046;-61
2022/07/05 13:12:21;;;;;;;0.90;0.30;;;20.60;99.90;;;;;;5006794;28;20514;-61